createdAt,value
2019-06-07T00:00:38.029Z,100061.50
2019-06-07T00:05:30.146Z,100074.36
2019-06-07T00:10:37.291Z,100081.13
2019-06-07T00:15:42.520Z,100100.58
2019-06-07T00:20:47.603Z,100103.13
2019-06-07T00:25:52.716Z,100115.28
2019-06-07T00:30:57.927Z,100122.53
2019-06-07T00:36:03.381Z,100122.81
2019-06-07T00:41:09.967Z,100123.21
2019-06-07T00:46:16.571Z,100134.80
2019-06-07T00:51:25.241Z,100137.94
2019-06-07T00:56:30.573Z,100127.85
2019-06-07T01:01:36.341Z,100139.95
2019-06-07T01:06:41.385Z,100140.88
2019-06-07T01:11:46.702Z,100137.41
2019-06-07T01:17:01.261Z,100139.95
2019-06-07T01:21:59.501Z,100147.61
2019-06-07T01:27:05.504Z,100151.02
2019-06-07T01:32:11.805Z,100152.98
2019-06-07T01:37:20.040Z,100163.42
2019-06-07T01:42:28.886Z,100165.36
2019-06-07T01:47:32.363Z,100160.94
2019-06-07T01:52:39.369Z,100143.50
2019-06-07T01:57:48.490Z,100138.07
2019-06-07T02:02:52.219Z,100136.84
2019-06-07T02:07:57.293Z,100138.70
2019-06-07T02:13:02.820Z,100134.64
2019-06-07T02:18:11.935Z,100141.20
2019-06-07T02:23:17.236Z,100146.39
2019-06-07T02:28:38.342Z,100143.06
2019-06-07T02:33:35.107Z,100139.93
2019-06-07T02:38:38.151Z,100139.38
2019-06-07T02:43:43.204Z,100128.53
2019-06-07T02:48:48.732Z,100133.08
2019-06-07T02:53:57.187Z,100128.56
2019-06-07T02:59:02.730Z,100127.52
2019-06-07T03:04:07.828Z,100121.92
2019-06-07T03:09:12.906Z,100125.08
2019-06-07T03:14:19.269Z,100120.70
2019-06-07T03:19:37.349Z,100121.94
2019-06-07T03:24:45.964Z,100121.41
2019-06-07T03:29:53.410Z,100127.12
2019-06-07T03:34:58.425Z,100131.72
2019-06-07T03:40:03.593Z,100127.22
2019-06-07T03:45:08.661Z,100145.29
2019-06-07T03:50:14.183Z,100147.42
2019-06-07T03:55:19.331Z,100148.05
2019-06-07T04:00:24.588Z,100154.51
2019-06-07T04:05:32.860Z,100158.29
2019-06-07T04:10:55.753Z,100160.11
2019-06-07T04:15:44.378Z,100150.57
2019-06-07T04:20:49.454Z,100155.08
2019-06-07T04:25:54.534Z,100158.22
2019-06-07T04:30:59.625Z,100157.52
2019-06-07T04:36:04.942Z,100161.79
2019-06-07T04:41:16.665Z,100158.14
2019-06-07T04:46:25.312Z,100163.13
2019-06-07T04:51:37.214Z,100161.55
2019-06-07T04:56:44.700Z,100167.84
2019-06-07T05:01:49.975Z,100168.61
2019-06-07T05:06:55.743Z,100170.03
2019-06-07T05:12:00.895Z,100154.75
2019-06-07T05:17:06.080Z,100158.45
2019-06-07T05:22:12.205Z,100158.56
2019-06-07T05:27:17.335Z,100163.25
2019-06-07T05:32:22.552Z,100159.84
2019-06-07T05:37:33.513Z,100158.49
2019-06-07T05:42:41.213Z,100157.91
2019-06-07T05:47:50.638Z,100157.39
2019-06-07T05:52:54.013Z,100155.50
2019-06-07T05:57:59.126Z,100160.80
2019-06-07T06:03:06.055Z,100152.70
2019-06-07T06:08:12.144Z,100155.67
2019-06-07T06:13:17.567Z,100142.73
2019-06-07T06:18:23.682Z,100142.39
2019-06-07T06:23:28.764Z,100142.47
2019-06-07T06:28:33.899Z,100136.96
2019-06-07T06:33:39.646Z,100144.29
2019-06-07T06:38:47.138Z,100143.48
2019-06-07T06:43:52.824Z,100148.22
2019-06-07T06:48:57.972Z,100151.38
2019-06-07T06:54:03.059Z,100145.63
2019-06-07T07:04:15.025Z,100141.84
2019-06-07T07:09:20.210Z,100146.80
2019-06-07T07:14:25.346Z,100152.62
2019-06-07T07:19:31.058Z,100140.09
2019-06-07T07:24:36.104Z,100151.25
2019-06-07T07:29:43.696Z,100148.44
2019-06-07T07:34:51.798Z,100149.91
2019-06-07T07:40:08.070Z,100143.09
2019-06-07T07:45:01.901Z,100139.61
2019-06-07T07:50:08.179Z,100136.92
2019-06-07T07:55:13.376Z,100135.80
2019-06-07T08:00:50.025Z,100126.64
2019-06-07T08:05:41.879Z,100124.77
2019-06-07T08:10:35.181Z,100133.39
2019-06-07T08:15:40.290Z,100118.37
2019-06-07T08:21:04.903Z,100118.14
2019-06-07T08:25:56.354Z,100116.58
2019-06-07T08:31:06.292Z,100111.19
2019-06-07T08:36:19.631Z,100099.27
2019-06-07T08:41:13.023Z,100100.84
2019-06-07T08:46:18.075Z,100102.61
2019-06-07T08:51:23.195Z,100098.84
2019-06-07T08:56:28.372Z,100104.53
2019-06-07T09:01:33.413Z,100096.84
2019-06-07T09:07:02.503Z,100087.52
2019-06-07T09:11:45.381Z,100090.14
2019-06-07T09:16:58.769Z,100086.22
2019-06-07T09:22:10.243Z,100080.32
2019-06-07T09:27:10.920Z,100079.41
2019-06-07T09:32:18.546Z,100080.06
2019-06-07T09:38:03.641Z,100062.85
2019-06-07T09:42:32.077Z,100062.47
2019-06-07T09:47:37.235Z,100060.14
2019-06-07T09:52:57.882Z,100060.38
2019-06-07T09:57:49.607Z,100050.25
2019-06-07T10:02:54.747Z,100047.23
2019-06-07T10:08:14.532Z,100034.90
2019-06-07T10:13:08.442Z,100027.02
2019-06-07T10:18:13.359Z,100033.33
2019-06-07T10:23:18.448Z,100030.30
2019-06-07T10:28:24.353Z,100034.42
2019-06-07T10:33:29.592Z,100032.61
2019-06-07T10:38:34.902Z,100028.23
2019-06-07T10:43:39.989Z,100036.00
2019-06-07T10:48:45.096Z,100023.23
2019-06-07T10:53:50.156Z,100022.58
2019-06-07T10:58:55.350Z,100017.89
2019-06-07T11:04:00.531Z,100005.82
2019-06-07T11:09:07.918Z,100007.35
2019-06-07T11:14:14.630Z,100001.62
2019-06-07T11:19:19.933Z,100009.54
2019-06-07T11:24:25.021Z,100003.44
2019-06-07T11:29:30.133Z,100000.32
2019-06-07T11:34:36.312Z,99997.98
2019-06-07T11:39:41.507Z,99993.28
2019-06-07T11:44:56.450Z,99991.48
2019-06-07T11:49:53.492Z,99974.23
2019-06-07T11:54:58.600Z,99972.20
2019-06-07T12:00:03.855Z,99965.59
2019-06-07T12:05:10.380Z,99964.59
2019-06-07T12:10:20.476Z,99951.28
2019-06-07T12:15:24.101Z,99947.29
2019-06-07T12:20:29.205Z,99944.55
2019-06-07T12:25:34.675Z,99936.10
2019-06-07T12:30:41.220Z,99928.73
2019-06-07T12:35:46.810Z,99916.09
2019-06-07T12:40:57.724Z,99907.97
2019-06-07T12:45:59.127Z,99904.47
2019-06-07T12:51:07.702Z,99904.47
2019-06-07T12:56:15.583Z,99901.36
2019-06-07T13:01:21.437Z,99899.80
2019-06-07T13:06:28.068Z,99900.37
2019-06-07T13:11:34.661Z,99893.93
2019-06-07T13:16:41.327Z,99871.06
2019-06-07T13:21:46.793Z,99872.37
2019-06-07T13:26:54.544Z,99872.37
2019-06-07T13:32:01.809Z,99871.81
2019-06-07T13:37:06.913Z,99854.31
2019-06-07T13:42:12.670Z,99854.31
2019-06-07T13:47:18.948Z,99829.61
2019-06-07T13:52:24.527Z,99830.94
2019-06-07T13:57:29.630Z,99818.78
2019-06-07T14:02:35.039Z,99812.84
2019-06-07T14:07:40.348Z,99819.19
2019-06-07T14:12:45.469Z,99820.81
2019-06-07T14:17:54.454Z,99806.77
2019-06-07T14:22:59.522Z,99799.40
2019-06-07T14:28:10.807Z,99796.63
2019-06-07T14:33:11.919Z,99788.83
2019-06-07T14:38:17.236Z,99776.67
2019-06-07T14:43:23.298Z,99772.79
2019-06-07T14:48:30.343Z,99771.41
2019-06-07T14:53:37.769Z,99769.44
2019-06-07T14:58:43.638Z,99766.91
2019-06-07T15:03:50.853Z,99767.48
2019-06-07T15:09:02.230Z,99755.22
2019-06-07T15:14:09.626Z,99736.55
2019-06-07T15:19:14.772Z,99731.77
2019-06-07T15:24:20.065Z,99733.21
2019-06-07T15:29:25.742Z,99725.53
2019-06-07T15:34:32.289Z,99714.52
2019-06-07T15:39:38.792Z,99708.89
2019-06-07T15:44:44.179Z,99702.66
2019-06-07T15:49:49.523Z,99708.50
2019-06-07T15:54:54.727Z,99688.08
2019-06-07T16:00:00.242Z,99683.23
2019-06-07T16:05:07.217Z,99683.23
2019-06-07T16:10:12.770Z,99684.75
2019-06-07T16:15:18.498Z,99685.91
2019-06-07T16:20:23.867Z,99690.19
2019-06-07T16:25:28.999Z,99685.90
2019-06-07T16:30:34.334Z,99687.07
2019-06-07T16:35:39.545Z,99686.27
2019-06-07T16:40:44.737Z,99683.50
2019-06-07T16:45:49.934Z,99679.44
2019-06-07T16:50:55.013Z,99656.13
2019-06-07T16:56:01.387Z,99668.16
2019-06-07T17:01:08.627Z,99658.09
2019-06-07T17:06:15.409Z,99659.63
2019-06-07T17:11:20.689Z,99657.88
2019-06-07T17:16:25.841Z,99654.20
2019-06-07T17:21:30.877Z,99646.44
2019-06-07T17:26:36.127Z,99644.12
2019-06-07T17:31:44.755Z,99634.80
2019-06-07T17:36:50.757Z,99630.34
2019-06-07T17:42:02.161Z,99620.27
2019-06-07T17:47:08.073Z,99616.19
2019-06-07T17:52:13.807Z,99610.33
2019-06-07T17:57:20.605Z,99607.80
2019-06-07T18:02:25.715Z,99608.36
2019-06-07T18:07:32.530Z,99581.37
2019-06-07T18:12:37.669Z,99562.19
2019-06-07T18:17:44.574Z,99558.48
2019-06-07T18:22:51.251Z,99556.74
2019-06-07T18:27:58.972Z,99573.76
2019-06-07T18:33:04.469Z,99594.69
2019-06-07T18:38:11.044Z,99592.17
2019-06-07T18:43:20.736Z,99593.67
2019-06-07T18:48:25.878Z,99589.59
2019-06-07T18:53:31.765Z,99591.31
2019-06-07T18:58:37.422Z,99592.24
2019-06-07T19:03:42.624Z,99600.38
2019-06-07T19:08:48.449Z,99604.02
2019-06-07T19:13:55.030Z,99603.44
2019-06-07T19:19:00.342Z,99612.48
2019-06-07T19:24:05.746Z,99603.18
2019-06-07T19:29:11.346Z,99608.96
2019-06-07T19:34:16.544Z,99609.70
2019-06-07T19:39:21.793Z,99612.00
2019-06-07T19:44:27.032Z,99614.66
2019-06-07T19:49:32.595Z,99621.43
2019-06-07T19:54:38.268Z,99612.47
2019-06-07T19:59:44.226Z,99606.49
2019-06-07T20:04:49.460Z,99622.93
2019-06-07T20:09:54.612Z,99643.64
2019-06-07T20:15:24.594Z,99644.16
2019-06-07T20:20:08.839Z,99651.46
2019-06-07T20:25:14.735Z,99663.20
2019-06-07T20:30:20.236Z,99665.86
2019-06-07T20:35:25.287Z,99654.22
2019-06-07T20:40:30.504Z,99636.30
2019-06-07T20:45:35.609Z,99639.80
2019-06-07T20:50:41.824Z,99642.64
2019-06-07T20:55:46.938Z,99636.00
2019-06-07T21:00:52.393Z,99626.09
2019-06-07T21:05:57.502Z,99619.45
2019-06-07T21:11:03.546Z,99627.37
2019-06-07T21:16:10.281Z,99616.54
2019-06-07T21:21:16.812Z,99619.75
2019-06-07T21:26:21.946Z,99619.53
2019-06-07T21:31:26.992Z,99623.47
2019-06-07T21:36:33.020Z,99652.59
2019-06-07T21:41:38.155Z,99665.91
2019-06-07T21:46:43.260Z,99692.36
2019-06-07T21:51:48.439Z,99709.58
2019-06-07T21:56:53.850Z,99720.30
2019-06-07T22:02:00.138Z,99712.17
2019-06-07T22:07:05.449Z,99713.70
2019-06-07T22:12:12.028Z,99718.19
2019-06-07T22:17:17.286Z,99721.64
2019-06-07T22:22:25.180Z,99726.83
2019-06-07T22:27:33.516Z,99718.34
2019-06-07T22:32:39.568Z,99800.28
2019-06-07T22:37:44.633Z,99902.81
2019-06-07T22:42:49.770Z,99898.50
2019-06-07T22:47:54.822Z,99894.20
2019-06-07T22:53:00.097Z,99903.28
2019-06-07T22:58:05.700Z,99893.38
2019-06-07T23:03:10.964Z,99891.71
2019-06-07T23:08:16.951Z,99879.84
2019-06-07T23:13:23.080Z,99905.07
2019-06-07T23:18:28.318Z,99936.98
2019-06-07T23:23:33.494Z,99955.56
2019-06-07T23:28:58.008Z,99968.89
2019-06-07T23:34:03.200Z,99981.08
2019-06-07T23:39:09.395Z,99999.47
2019-06-07T23:44:15.343Z,100014.93
2019-06-07T23:49:22.405Z,100037.70
2019-06-07T23:54:27.874Z,100046.17
2019-06-07T23:59:32.981Z,100064.86
